createdAt,value
2023-05-15T00:00:46.981Z,10.53
2023-05-15T00:05:49.486Z,10.54
2023-05-15T00:11:00.967Z,10.53
2023-05-15T00:16:03.708Z,10.45
2023-05-15T00:21:05.267Z,10.47
2023-05-15T00:26:06.690Z,10.41
2023-05-15T00:31:08.882Z,10.39
2023-05-15T00:36:10.686Z,10.26
2023-05-15T00:41:12.658Z,10.15
2023-05-15T00:46:14.561Z,10.05
2023-05-15T00:51:17.217Z,9.91
2023-05-15T00:56:19.101Z,10.00
2023-05-15T01:01:20.716Z,9.95
2023-05-15T01:06:22.284Z,10.01
2023-05-15T01:11:27.574Z,10.00
2023-05-15T01:16:29.761Z,10.08
2023-05-15T01:21:37.453Z,10.06
2023-05-15T01:27:01.846Z,9.98
2023-05-15T01:32:09.169Z,10.01
2023-05-15T01:37:12.450Z,9.93
2023-05-15T01:42:16.794Z,9.95
2023-05-15T01:47:25.753Z,9.88
2023-05-15T01:52:32.721Z,9.81
2023-05-15T01:57:35.681Z,9.73
2023-05-15T02:02:37.791Z,9.72
2023-05-15T02:07:41.922Z,9.60
2023-05-15T02:12:44.028Z,9.62
2023-05-15T02:17:45.553Z,9.49
2023-05-15T02:22:46.986Z,9.51
2023-05-15T02:27:57.446Z,9.49
2023-05-15T02:33:09.474Z,9.33
2023-05-15T02:38:16.952Z,9.26
2023-05-15T02:43:19.378Z,9.29
2023-05-15T02:48:21.435Z,9.30
2023-05-15T02:53:23.027Z,9.39
2023-05-15T02:58:24.710Z,9.52
2023-05-15T03:03:26.278Z,9.57
2023-05-15T03:08:28.481Z,9.60
2023-05-15T03:13:29.908Z,9.64
2023-05-15T03:18:31.381Z,9.72
2023-05-15T03:23:32.908Z,9.77
2023-05-15T03:28:34.421Z,9.86
2023-05-15T03:33:35.805Z,9.93
2023-05-15T03:38:37.306Z,9.92
2023-05-15T03:43:38.744Z,9.90
2023-05-15T03:48:40.181Z,9.98
2023-05-15T03:53:41.628Z,9.95
2023-05-15T03:58:43.500Z,9.94
2023-05-15T04:03:45.114Z,9.83
2023-05-15T04:08:46.555Z,9.72
2023-05-15T04:13:47.942Z,9.68
2023-05-15T04:18:49.435Z,9.71
2023-05-15T04:23:50.926Z,9.64
2023-05-15T04:29:02.918Z,9.51
2023-05-15T04:34:06.016Z,9.60
2023-05-15T04:39:07.578Z,9.68
2023-05-15T04:44:09.004Z,9.62
2023-05-15T04:49:10.584Z,9.66
2023-05-15T04:54:12.036Z,9.61
2023-05-15T04:59:13.510Z,9.59
2023-05-15T05:04:15.026Z,9.53
2023-05-15T05:09:18.519Z,9.65
2023-05-15T05:14:20.118Z,9.79
2023-05-15T05:19:21.558Z,9.82
2023-05-15T05:24:23.038Z,9.85
2023-05-15T05:29:25.143Z,9.99
2023-05-15T05:34:26.546Z,10.13
2023-05-15T05:39:28.105Z,10.17
2023-05-15T05:44:29.572Z,10.06
2023-05-15T05:49:30.996Z,10.13
2023-05-15T05:54:32.483Z,10.35
2023-05-15T05:59:33.969Z,10.81
2023-05-15T06:04:35.694Z,11.13
2023-05-15T06:09:37.258Z,11.09
2023-05-15T06:14:38.922Z,11.36
2023-05-15T06:19:40.400Z,11.05
2023-05-15T06:24:42.231Z,11.06
2023-05-15T06:29:43.697Z,11.57
2023-05-15T06:34:45.260Z,11.79
2023-05-15T06:39:46.771Z,12.05
2023-05-15T06:44:49.621Z,11.94
2023-05-15T06:49:51.257Z,12.14
2023-05-15T06:54:52.706Z,12.51
2023-05-15T06:59:54.121Z,12.67
2023-05-15T07:04:56.221Z,12.88
2023-05-15T07:09:57.818Z,12.75
2023-05-15T07:14:59.300Z,13.23
2023-05-15T07:20:00.842Z,13.73
2023-05-15T07:25:02.556Z,12.98
2023-05-15T07:30:04.690Z,13.09
2023-05-15T07:35:06.725Z,13.70
2023-05-15T07:40:08.589Z,13.79
2023-05-15T07:45:10.409Z,14.33
2023-05-15T07:50:11.981Z,14.25
2023-05-15T07:55:13.527Z,14.71
2023-05-15T08:00:15.504Z,15.36
2023-05-15T08:05:17.123Z,15.68
2023-05-15T08:10:18.766Z,15.24
2023-05-15T08:15:20.387Z,15.50
2023-05-15T08:20:21.883Z,15.27
2023-05-15T08:25:23.596Z,15.41
2023-05-15T08:30:25.270Z,15.25
2023-05-15T08:35:26.930Z,15.78
2023-05-15T08:45:33.495Z,15.58
2023-05-15T08:50:38.387Z,16.41
2023-05-15T08:55:40.946Z,16.53
2023-05-15T09:00:42.592Z,16.98
2023-05-15T09:05:44.370Z,17.52
2023-05-15T09:10:46.287Z,17.65
2023-05-15T09:15:48.232Z,17.22
2023-05-15T09:20:49.704Z,16.92
2023-05-15T09:25:53.166Z,16.46
2023-05-15T09:31:02.803Z,17.54
2023-05-15T09:36:06.232Z,17.77
2023-05-15T09:41:08.785Z,18.13
2023-05-15T09:46:13.195Z,17.13
2023-05-15T09:51:19.598Z,17.14
2023-05-15T09:56:22.044Z,17.04
2023-05-15T10:01:24.193Z,17.16
2023-05-15T10:06:25.800Z,17.26
2023-05-15T10:11:27.388Z,17.24
2023-05-15T10:16:29.925Z,16.79
2023-05-15T10:21:39.220Z,17.03
2023-05-15T10:26:42.196Z,17.07
2023-05-15T10:31:44.006Z,16.71
2023-05-15T10:36:46.150Z,17.08
2023-05-15T10:41:50.554Z,16.99
2023-05-15T10:46:52.881Z,16.51
2023-05-15T10:51:54.653Z,16.85
2023-05-15T10:56:56.796Z,16.66
2023-05-15T11:02:21.419Z,16.96
2023-05-15T11:07:24.246Z,16.56
2023-05-15T11:12:25.704Z,16.91
2023-05-15T11:17:31.625Z,17.02
2023-05-15T11:22:38.843Z,16.47
2023-05-15T11:27:42.297Z,16.26
2023-05-15T11:32:46.772Z,16.12
2023-05-15T11:37:49.734Z,15.83
2023-05-15T11:43:08.733Z,16.11
2023-05-15T11:48:15.164Z,15.94
2023-05-15T11:53:18.009Z,15.43
2023-05-15T11:58:21.198Z,15.95
2023-05-15T12:03:27.792Z,16.10
2023-05-15T12:08:33.478Z,15.29
2023-05-15T12:13:35.353Z,15.24
2023-05-15T12:18:36.910Z,15.28
2023-05-15T12:23:38.375Z,15.41
2023-05-15T12:28:39.982Z,15.30
2023-05-15T12:33:41.467Z,15.31
2023-05-15T12:38:42.991Z,15.03
2023-05-15T12:43:44.486Z,15.30
2023-05-15T12:48:47.405Z,15.54
2023-05-15T12:53:48.844Z,15.34
2023-05-15T12:58:51.215Z,14.98
2023-05-15T13:03:52.992Z,15.32
2023-05-15T13:08:55.006Z,15.70
2023-05-15T13:13:56.467Z,16.39
2023-05-15T13:19:00.852Z,16.53
2023-05-15T13:24:02.514Z,17.15
2023-05-15T13:29:03.969Z,17.25
2023-05-15T13:34:05.723Z,16.77
2023-05-15T13:39:07.226Z,16.95
2023-05-15T13:44:08.687Z,16.98
2023-05-15T13:49:11.320Z,17.01
2023-05-15T13:54:12.892Z,17.13
2023-05-15T13:59:14.506Z,16.32
2023-05-15T14:04:16.047Z,17.02
2023-05-15T14:09:17.539Z,17.09
2023-05-15T14:14:18.984Z,17.22
2023-05-15T14:19:20.470Z,17.06
2023-05-15T14:24:21.935Z,16.95
2023-05-15T14:29:23.430Z,16.60
2023-05-15T14:38:21.687Z,15.88
2023-05-15T14:43:24.889Z,14.98
2023-05-15T14:48:26.306Z,15.26
2023-05-15T14:53:27.768Z,15.61
2023-05-15T14:58:29.808Z,15.23
2023-05-15T15:03:33.317Z,15.68
2023-05-15T15:08:35.683Z,15.75
2023-05-15T15:13:37.074Z,15.67
2023-05-15T15:18:38.530Z,15.59
2023-05-15T15:23:40.059Z,15.30
2023-05-15T15:28:41.512Z,15.22
2023-05-15T15:33:43.077Z,14.63
2023-05-15T15:38:44.540Z,14.71
2023-05-15T15:43:45.914Z,14.82
2023-05-15T15:48:48.442Z,14.40
2023-05-15T15:53:49.881Z,14.28
2023-05-15T15:58:51.287Z,14.48
2023-05-15T16:03:52.909Z,14.21
2023-05-15T16:08:54.342Z,14.17
2023-05-15T16:13:55.792Z,13.96
2023-05-15T16:18:57.229Z,14.01
2023-05-15T16:23:58.709Z,13.79
2023-05-15T16:29:00.156Z,13.68
2023-05-15T16:34:03.634Z,13.36
2023-05-15T16:39:05.312Z,13.32
2023-05-15T16:44:10.857Z,13.31
2023-05-15T16:49:12.289Z,12.90
2023-05-15T16:54:13.788Z,12.92
2023-05-15T16:59:15.719Z,12.79
2023-05-15T17:04:17.199Z,12.79
2023-05-15T17:09:18.868Z,12.85
2023-05-15T17:14:21.162Z,12.85
2023-05-15T17:19:22.781Z,13.03
2023-05-15T17:24:24.226Z,12.83
2023-05-15T17:29:25.666Z,12.73
2023-05-15T17:34:27.307Z,12.67
2023-05-15T17:39:29.034Z,12.80
2023-05-15T17:44:31.126Z,12.61
2023-05-15T17:49:34.198Z,12.67
2023-05-15T17:54:35.918Z,12.79
2023-05-15T17:59:37.351Z,12.70
2023-05-15T18:04:38.964Z,12.63
2023-05-15T18:09:40.748Z,12.56
2023-05-15T18:14:42.496Z,12.58
2023-05-15T18:19:44.866Z,12.63
2023-05-15T18:24:46.499Z,12.52
2023-05-15T18:29:48.037Z,12.29
2023-05-15T18:34:49.591Z,12.26
2023-05-15T18:39:51.968Z,12.25
2023-05-15T18:44:53.426Z,11.98
2023-05-15T18:49:55.123Z,11.85
2023-05-15T18:54:57.619Z,11.73
2023-05-15T19:00:01.173Z,11.63
2023-05-15T19:05:02.603Z,11.55
2023-05-15T19:10:04.475Z,11.53
2023-05-15T19:15:06.709Z,11.51
2023-05-15T19:20:08.940Z,11.41
2023-05-15T19:25:10.853Z,11.37
2023-05-15T19:30:12.608Z,11.37
2023-05-15T19:35:14.240Z,11.26
2023-05-15T19:40:16.364Z,11.29
2023-05-15T19:45:17.853Z,11.17
2023-05-15T19:50:19.345Z,11.19
2023-05-15T19:55:20.906Z,11.13
2023-05-15T20:00:23.542Z,11.21
2023-05-15T20:05:27.851Z,11.13
2023-05-15T20:10:30.459Z,11.20
2023-05-15T20:15:33.800Z,11.11
2023-05-15T20:20:36.267Z,11.14
2023-05-15T20:25:37.906Z,11.08
2023-05-15T20:30:39.492Z,10.94
2023-05-15T20:35:42.695Z,10.94
2023-05-15T20:40:44.561Z,10.52
2023-05-15T20:45:46.258Z,10.15
2023-05-15T20:50:47.728Z,10.02
2023-05-15T20:55:49.270Z,9.81
2023-05-15T21:00:50.877Z,9.77
2023-05-15T21:05:55.394Z,9.68
2023-05-15T21:10:58.063Z,9.68
2023-05-15T21:15:59.465Z,9.61
2023-05-15T21:21:03.011Z,9.42
2023-05-15T21:26:05.018Z,9.52
2023-05-15T21:31:07.782Z,9.19
2023-05-15T21:36:09.481Z,9.13
2023-05-15T21:41:11.694Z,9.14
2023-05-15T21:46:13.199Z,9.11
2023-05-15T21:51:14.632Z,9.06
2023-05-15T21:56:16.493Z,8.92
2023-05-15T22:01:18.087Z,8.97
2023-05-15T22:06:19.466Z,8.85
2023-05-15T22:11:20.870Z,8.89
2023-05-15T22:16:22.365Z,8.90
2023-05-15T22:21:23.958Z,8.82
2023-05-15T22:26:25.444Z,8.92
2023-05-15T22:31:27.261Z,8.87
2023-05-15T22:36:28.913Z,8.88
2023-05-15T22:41:31.316Z,8.89
2023-05-15T22:46:32.978Z,8.89
2023-05-15T22:51:34.971Z,8.85
2023-05-15T22:56:36.405Z,8.85
2023-05-15T23:01:37.904Z,8.76
2023-05-15T23:06:41.013Z,8.74
2023-05-15T23:11:42.551Z,8.65
2023-05-15T23:16:44.472Z,8.67
2023-05-15T23:21:46.501Z,8.65
2023-05-15T23:26:48.059Z,8.63
2023-05-15T23:31:49.714Z,8.65
2023-05-15T23:36:51.264Z,8.66
2023-05-15T23:41:52.683Z,8.64
2023-05-15T23:46:54.171Z,8.58
2023-05-15T23:51:55.664Z,8.53
2023-05-15T23:56:57.133Z,8.64
